Time;durP1;ratioP1;P1;durP2;ratioP2;P2;SDS_P1;SDS_P2;PMS_P1;PMS_P2;Temp;Humidity;BMP_temperature;BMP_pressure;BME280_temperature;BME280_humidity;BME280_pressure;Samples;Min_cycle;Max_cycle;Signal;HPM_P1;HPM_P2
2021/12/02 00:00:45;;;;;;;9.23;4.35;;;;;;;8.66;64.43;99057.44;5090718;28;20024;-67
2021/12/02 00:03:10;;;;;;;8.27;3.97;;;;;;;8.63;64.67;99061.25;5090852;28;20020;-67
2021/12/02 00:05:36;;;;;;;7.65;3.97;;;;;;;8.62;65.25;99064.94;5091008;28;20486;-67
2021/12/02 00:08:02;;;;;;;7.68;4.03;;;;;;;8.62;64.44;99064.09;5089979;28;20495;-66
2021/12/02 00:10:31;;;;;;;8.80;4.30;;;;;;;8.66;64.57;99054.75;5090132;28;20498;-66
2021/12/02 00:12:57;;;;;;;5.78;3.75;;;;;;;8.61;64.49;99059.75;5072495;28;20490;-66
2021/12/02 00:15:28;;;;;;;7.53;4.10;;;;;;;8.62;64.53;99054.25;5072289;28;20032;-66
2021/12/02 00:18:18;;;;;;;6.68;4.30;;;;;;;8.62;64.85;99053.41;5090542;28;20093;-66
2021/12/02 00:23:28;;;;;;;6.50;3.88;;;;;;;8.75;63.70;99051.19;5088544;28;20120;-69
2021/12/02 00:25:57;;;;;;;7.60;3.42;;;;;;;8.78;63.74;99066.91;5072229;28;20479;-69
2021/12/02 00:28:28;;;;;;;8.65;4.03;;;;;;;8.74;64.50;99060.19;5090292;28;20101;-69
2021/12/02 00:30:55;;;;;;;5.32;3.40;;;;;;;8.79;63.72;99056.06;5090298;28;20026;-69
2021/12/02 00:33:24;;;;;;;5.80;3.65;;;;;;;8.69;64.23;99046.44;5090344;28;20081;-69
2021/12/02 00:35:50;;;;;;;6.40;2.90;;;;;;;8.76;64.13;99055.50;5090328;28;20476;-69
2021/12/02 00:38:18;;;;;;;8.93;3.80;;;;;;;8.71;63.82;99045.28;5072121;28;20094;-69
2021/12/02 00:40:44;;;;;;;6.28;3.35;;;;;;;8.75;64.18;99043.16;5069653;28;20047;-69
2021/12/02 00:43:10;;;;;;;5.90;3.30;;;;;;;8.79;63.88;99055.22;5090118;28;20060;-69
2021/12/02 00:45:42;;;;;;;6.18;3.17;;;;;;;8.76;64.29;99050.16;5090054;28;20048;-69
2021/12/02 00:48:09;;;;;;;4.97;3.08;;;;;;;8.73;64.29;99051.31;5090279;28;20058;-69
2021/12/02 00:50:36;;;;;;;6.10;3.05;;;;;;;8.80;64.66;99057.72;5090230;28;20077;-69
2021/12/02 00:53:02;;;;;;;5.32;3.13;;;;;;;8.88;64.21;99065.00;5090130;28;20298;-69
2021/12/02 00:55:28;;;;;;;6.45;3.10;;;;;;;8.85;64.24;99043.91;5090034;28;20073;-69
2021/12/02 00:57:54;;;;;;;5.45;2.95;;;;;;;8.92;63.68;99055.66;5089910;28;20023;-69
2021/12/02 01:00:19;;;;;;;4.95;3.22;;;;;;;9.07;63.32;99048.75;5089885;28;20301;-69
2021/12/02 01:02:48;;;;;;;6.13;3.05;;;;;;;9.02;63.34;99049.22;5089948;28;20111;-69
2021/12/02 01:05:14;;;;;;;6.50;3.20;;;;;;;8.99;63.93;99054.03;5089918;28;20020;-69
2021/12/02 01:07:41;;;;;;;6.72;2.75;;;;;;;9.06;63.13;99057.75;5089904;28;20071;-69
2021/12/02 01:10:08;;;;;;;5.05;2.92;;;;;;;9.04;63.33;99049.94;5089929;28;20101;-69
2021/12/02 01:12:37;;;;;;;3.60;2.70;;;;;;;9.08;63.79;99047.75;5089795;28;20016;-69
2021/12/02 01:15:07;;;;;;;4.70;2.80;;;;;;;9.06;64.09;99039.03;5090008;28;20035;-69
2021/12/02 01:17:32;;;;;;;5.22;2.90;;;;;;;9.07;63.62;99038.06;5089883;28;20036;-69
2021/12/02 01:19:58;;;;;;;6.97;2.60;;;;;;;9.16;63.14;99039.81;5069964;28;20081;-66
2021/12/02 01:22:26;;;;;;;6.70;2.92;;;;;;;9.16;63.88;99047.84;5091521;28;20063;-66
2021/12/02 01:24:54;;;;;;;5.60;2.50;;;;;;;9.10;64.00;99029.72;5093955;28;20030;-66
2021/12/02 01:27:20;;;;;;;4.38;2.80;;;;;;;9.13;63.75;99040.13;5093880;28;20024;-67
2021/12/02 01:29:48;;;;;;;4.40;2.60;;;;;;;9.16;63.73;99032.59;5094057;28;20081;-67
2021/12/02 01:32:15;;;;;;;4.50;2.78;;;;;;;9.20;63.83;99035.81;5093706;28;20476;-68
2021/12/02 01:34:45;;;;;;;6.28;2.78;;;;;;;9.19;64.17;99028.75;5093740;28;20514;-69
2021/12/02 01:37:11;;;;;;;5.47;3.20;;;;;;;9.20;63.94;99028.59;5093734;28;20087;-69
2021/12/02 01:39:37;;;;;;;3.88;2.78;;;;;;;9.23;63.47;99032.81;5093557;28;20503;-69
2021/12/02 01:42:03;;;;;;;5.38;3.25;;;;;;;9.20;64.25;99022.44;5093500;28;20036;-69
2021/12/02 01:44:29;;;;;;;4.35;2.78;;;;;;;9.21;64.48;99027.63;5093631;28;20116;-69
2021/12/02 01:46:58;;;;;;;7.25;3.10;;;;;;;9.20;64.33;99022.44;5093603;28;20032;-69
2021/12/02 01:49:28;;;;;;;6.85;2.88;;;;;;;9.11;64.83;99004.66;5093344;28;20035;-68
2021/12/02 01:51:55;;;;;;;5.50;2.72;;;;;;;9.21;64.57;99021.44;5093509;28;20028;-69
2021/12/02 01:54:23;;;;;;;5.93;3.10;;;;;;;9.15;64.46;99001.50;5072655;28;20494;-69
2021/12/02 01:56:50;;;;;;;5.28;3.03;;;;;;;9.21;64.46;99008.06;5075133;28;20472;-69
2021/12/02 01:59:18;;;;;;;7.45;3.28;;;;;;;9.22;64.71;99001.69;5093345;28;20028;-69
2021/12/02 02:01:47;;;;;;;5.00;3.08;;;;;;;9.21;64.90;99005.38;5093068;28;20024;-69
2021/12/02 02:04:14;;;;;;;5.85;2.78;;;;;;;9.21;65.20;99000.03;5093197;28;20027;-69
2021/12/02 02:06:59;;;;;;;6.20;2.75;;;;;;;9.21;65.15;99002.72;5093302;28;20024;-69
2021/12/02 02:09:27;;;;;;;4.95;2.97;;;;;;;9.27;65.06;99002.09;5090427;28;20040;-69
2021/12/02 02:11:53;;;;;;;5.57;2.80;;;;;;;9.29;65.08;99002.78;5093060;28;20388;-69
2021/12/02 02:14:18;;;;;;;4.93;2.88;;;;;;;9.24;64.73;98991.69;5093127;28;20472;-69
2021/12/02 02:16:44;;;;;;;5.88;2.83;;;;;;;9.24;65.24;99005.06;5092808;28;20099;-69
2021/12/02 02:19:12;;;;;;;4.53;2.45;;;;;;;9.23;65.86;98998.06;5092199;28;20110;-69
2021/12/02 02:21:38;;;;;;;6.80;3.10;;;;;;;9.23;65.31;98996.19;5092935;28;20090;-69
2021/12/02 02:24:08;;;;;;;3.75;2.60;;;;;;;9.30;64.85;98996.41;5092706;28;20499;-69
2021/12/02 02:26:36;;;;;;;5.32;2.63;;;;;;;9.25;64.91;98986.19;5092499;28;20046;-68
2021/12/02 02:29:06;;;;;;;6.57;3.00;;;;;;;9.29;65.47;98997.44;5092575;28;20048;-69
2021/12/02 02:31:33;;;;;;;6.05;3.22;;;;;;;9.25;65.95;99004.91;5093155;28;20028;-66
2021/12/02 02:33:59;;;;;;;5.25;2.67;;;;;;;9.21;65.89;98997.38;5092151;28;20100;-67
2021/12/02 02:36:33;;;;;;;4.13;2.42;;;;;;;9.23;66.43;99012.25;5074247;28;20020;-67
2021/12/02 02:39:02;;;;;;;6.80;2.78;;;;;;;9.22;66.03;98999.03;5092689;28;20510;-67
2021/12/02 02:41:32;;;;;;;5.60;3.03;;;;;;;9.26;65.85;99000.41;5092353;28;20472;-67
2021/12/02 02:43:59;;;;;;;5.20;2.80;;;;;;;9.20;66.09;99001.03;5092334;28;20020;-67
2021/12/02 02:46:39;;;;;;;6.70;3.10;;;;;;;9.23;66.22;99006.06;5092104;28;20032;-67
2021/12/02 02:49:07;;;;;;;4.95;2.90;;;;;;;9.21;66.80;98994.69;5092248;28;20059;-66
2021/12/02 02:51:35;;;;;;;5.82;2.97;;;;;;;9.19;66.88;98983.28;5092227;28;20020;-67
2021/12/02 02:54:04;;;;;;;6.05;2.70;;;;;;;9.25;66.61;98990.69;5074074;28;20035;-67
2021/12/02 02:56:33;;;;;;;4.90;2.60;;;;;;;9.23;66.87;98990.84;5092103;28;20435;-67
2021/12/02 03:09:10;;;;;;;5.43;3.15;;;;;;;9.26;67.15;98995.88;5091900;28;20016;-66
2021/12/02 03:11:42;;;;;;;5.18;3.35;;;;;;;9.23;66.96;98984.69;5091762;28;20465;-67
2021/12/02 03:14:13;;;;;;;4.40;2.85;;;;;;;9.26;67.11;98987.03;5091848;28;20434;-67
2021/12/02 03:16:45;;;;;;;5.10;2.45;;;;;;;9.24;67.27;98981.84;5073561;28;20492;-67
2021/12/02 03:19:15;;;;;;;7.03;2.92;;;;;;;9.26;67.40;98987.84;5090464;28;20275;-67
2021/12/02 03:21:41;;;;;;;7.97;2.95;;;;;;;9.20;67.32;98976.97;5091237;28;20024;-68
2021/12/02 03:24:07;;;;;;;4.70;3.17;;;;;;;9.20;67.83;98974.28;5073189;28;20043;-67
2021/12/02 03:26:33;;;;;;;4.32;2.92;;;;;;;9.24;67.13;98984.53;5091643;28;20036;-67
2021/12/02 03:28:59;;;;;;;5.40;3.17;;;;;;;9.21;67.75;98968.78;5091494;28;20145;-67
2021/12/02 03:31:25;;;;;;;6.63;2.90;;;;;;;9.25;67.43;98982.66;5073258;28;20020;-67
2021/12/02 03:33:50;;;;;;;5.65;3.15;;;;;;;9.19;67.64;98969.91;5091284;28;20039;-67
2021/12/02 03:36:17;;;;;;;6.95;2.88;;;;;;;9.24;67.77;98979.16;5091247;28;20024;-67
2021/12/02 03:38:45;;;;;;;5.18;3.22;;;;;;;9.20;67.96;98971.63;5073028;28;20110;-67
2021/12/02 03:41:11;;;;;;;5.80;2.92;;;;;;;9.19;68.07;98977.94;5091213;28;20030;-67
2021/12/02 03:43:37;;;;;;;5.70;2.78;;;;;;;9.20;68.30;98976.97;5091319;28;20709;-67
2021/12/02 03:46:04;;;;;;;5.85;3.13;;;;;;;9.16;68.46;98972.94;5090485;28;20036;-67
2021/12/02 03:48:30;;;;;;;5.03;2.90;;;;;;;9.11;68.49;98959.19;5091740;28;20134;-67
2021/12/02 03:50:55;;;;;;;5.97;3.00;;;;;;;9.18;68.39;98969.09;5091777;28;20466;-67
2021/12/02 03:53:21;;;;;;;4.72;2.70;;;;;;;9.17;68.20;98963.91;5091580;28;20472;-67
2021/12/02 03:55:46;;;;;;;5.30;2.47;;;;;;;9.14;68.88;98959.72;5092372;28;20028;-69
2021/12/02 03:58:12;;;;;;;4.32;2.95;;;;;;;9.14;68.36;98951.72;5097038;28;20118;-69
2021/12/02 04:00:37;;;;;;;5.78;2.97;;;;;;;9.13;68.79;98952.69;5094186;28;20028;-69
2021/12/02 04:03:03;;;;;;;5.82;3.38;;;;;;;9.10;68.87;98946.81;5092563;28;20032;-69
2021/12/02 04:05:28;;;;;;;5.13;2.65;;;;;;;9.11;69.08;98952.03;5093921;28;20024;-69
2021/12/02 04:07:54;;;;;;;5.10;2.83;;;;;;;9.07;68.76;98950.63;5095837;28;20479;-69
2021/12/02 04:10:21;;;;;;;5.72;3.13;;;;;;;9.06;69.12;98961.50;5093493;28;20107;-69
2021/12/02 04:13:12;;;;;;;5.20;2.75;;;;;;;9.07;69.32;98965.88;5093893;28;20032;-69
2021/12/02 04:15:40;;;;;;;4.85;2.83;;;;;;;9.00;69.79;98967.50;5091389;28;20039;-69
2021/12/02 04:18:06;;;;;;;5.47;3.03;;;;;;;9.02;70.17;98973.50;5093262;28;20096;-69
2021/12/02 04:20:33;;;;;;;3.95;2.83;;;;;;;9.04;69.94;98975.03;5077413;28;20084;-69
2021/12/02 04:22:58;;;;;;;5.80;3.17;;;;;;;9.03;70.23;98983.22;5092744;28;20735;-67
2021/12/02 04:25:25;;;;;;;4.18;2.30;;;;;;;9.03;69.79;98970.69;5095677;28;20057;-67
2021/12/02 04:27:52;;;;;;;7.93;3.13;;;;;;;9.05;70.48;98967.84;5078737;28;20590;-67
2021/12/02 04:30:21;;;;;;;6.72;3.63;;;;;;;9.00;70.97;98962.16;5095720;28;20032;-67
2021/12/02 04:32:47;;;;;;;4.22;2.90;;;;;;;9.02;70.97;98968.16;5091868;28;20539;-67
2021/12/02 04:35:13;;;;;;;4.85;3.00;;;;;;;9.03;71.35;98973.34;5093615;28;20365;-67
2021/12/02 04:37:40;;;;;;;6.85;3.42;;;;;;;9.02;71.69;98978.84;5097010;28;20059;-67
2021/12/02 04:40:07;;;;;;;4.72;2.70;;;;;;;9.00;71.86;98981.69;5093865;28;20062;-67
2021/12/02 04:42:33;;;;;;;5.00;2.95;;;;;;;8.97;72.07;98981.19;5095627;28;20161;-67
2021/12/02 04:44:59;;;;;;;5.80;2.80;;;;;;;9.00;72.44;98988.88;5095773;28;20020;-67
2021/12/02 04:47:24;;;;;;;4.95;2.75;;;;;;;8.93;73.14;98979.78;5095445;28;20027;-67
2021/12/02 04:49:50;;;;;;;6.18;3.20;;;;;;;8.91;73.54;98979.13;5090430;28;20035;-67
2021/12/02 04:52:16;;;;;;;5.95;3.15;;;;;;;8.87;73.60;98981.25;5090594;28;20095;-67
2021/12/02 04:54:42;;;;;;;4.82;3.20;;;;;;;8.91;74.24;98987.16;5090390;28;20024;-67
2021/12/02 04:57:07;;;;;;;4.97;3.08;;;;;;;8.85;74.68;98964.56;5072342;28;20515;-67
2021/12/02 04:59:33;;;;;;;7.03;3.33;;;;;;;8.88;74.63;98982.97;5090797;28;20020;-67
2021/12/02 05:01:58;;;;;;;5.18;3.20;;;;;;;8.92;74.85;98987.00;5072568;28;20491;-67
2021/12/02 05:04:24;;;;;;;7.03;3.78;;;;;;;8.83;74.89;98971.88;5090674;28;20035;-67
2021/12/02 05:06:49;;;;;;;9.25;3.60;;;;;;;8.89;74.85;98978.44;5090885;28;20024;-67
2021/12/02 05:09:15;;;;;;;6.55;3.60;;;;;;;8.81;75.60;98967.69;5090678;28;20063;-67
2021/12/02 05:11:40;;;;;;;5.97;3.20;;;;;;;8.85;75.33;98977.06;5090577;28;20032;-67
2021/12/02 05:14:08;;;;;;;5.05;2.80;;;;;;;8.84;75.70;98973.56;5090527;28;20028;-67
2021/12/02 05:16:35;;;;;;;5.10;3.25;;;;;;;8.84;75.47;98970.88;5090467;28;20113;-67
2021/12/02 05:19:01;;;;;;;6.57;3.22;;;;;;;8.82;75.87;98974.72;5089409;28;20032;-68
2021/12/02 05:21:26;;;;;;;5.47;3.22;;;;;;;8.79;75.87;98964.31;5086888;28;20081;-67
2021/12/02 05:23:54;;;;;;;8.55;3.72;;;;;;;8.83;75.59;98981.72;5089230;28;20024;-67
2021/12/02 05:26:24;;;;;;;4.40;3.05;;;;;;;8.85;76.03;98985.94;5089301;28;20050;-67
2021/12/02 05:28:54;;;;;;;6.95;3.58;;;;;;;8.80;75.99;98971.34;5070931;28;20535;-67
2021/12/02 05:31:21;;;;;;;6.55;3.55;;;;;;;8.86;75.78;98986.75;5090076;28;20024;-67
2021/12/02 05:33:47;;;;;;;7.47;3.55;;;;;;;8.86;75.90;98995.63;5090385;28;20620;-67
2021/12/02 05:36:12;;;;;;;6.13;3.53;;;;;;;8.88;76.18;98985.63;5090477;28;20511;-67
2021/12/02 05:38:38;;;;;;;7.03;3.47;;;;;;;8.84;75.96;98975.41;5090315;28;20020;-67
2021/12/02 05:41:04;;;;;;;11.60;3.80;;;;;;;8.80;76.23;98966.84;5072221;28;20107;-66
2021/12/02 05:43:30;;;;;;;6.05;3.47;;;;;;;8.80;76.91;98971.34;5090114;28;20035;-66
2021/12/02 05:45:55;;;;;;;6.95;3.90;;;;;;;8.83;76.82;98965.69;5090379;28;20070;-66
2021/12/02 05:48:21;;;;;;;8.98;4.05;;;;;;;8.91;76.76;98976.44;5090411;28;20043;-67
2021/12/02 05:50:47;;;;;;;9.45;3.92;;;;;;;8.84;77.22;98965.53;5090260;28;20036;-67
2021/12/02 05:53:12;;;;;;;7.55;3.70;;;;;;;8.85;77.40;98966.38;5072199;28;20024;-67
2021/12/02 05:55:38;;;;;;;8.63;3.92;;;;;;;8.87;77.31;98970.56;5071991;28;20349;-67
2021/12/02 05:58:06;;;;;;;8.38;4.53;;;;;;;8.87;77.41;98985.78;5090149;28;20032;-66
2021/12/02 06:00:32;;;;;;;4.55;3.30;;;;;;;8.85;77.49;98979.75;5090125;28;20169;-67
2021/12/02 06:02:57;;;;;;;8.05;3.95;;;;;;;8.86;78.30;98987.63;5089292;28;20111;-67
2021/12/02 06:05:23;;;;;;;6.68;3.75;;;;;;;8.90;78.17;98993.50;5089225;28;20581;-67
2021/12/02 06:07:56;;;;;;;8.18;3.60;;;;;;;8.81;78.71;98983.75;5089680;28;20054;-67
2021/12/02 06:10:23;;;;;;;6.75;4.05;;;;;;;8.84;79.47;98986.91;5092828;28;20789;-67
2021/12/02 06:12:49;;;;;;;5.20;3.60;;;;;;;8.88;79.59;98998.16;5092420;28;20044;-66
2021/12/02 06:15:15;;;;;;;6.00;3.63;;;;;;;8.85;80.16;99004.66;5092619;28;20425;-66
2021/12/02 06:17:42;;;;;;;6.78;4.22;;;;;;;8.83;79.98;99005.78;5074230;28;20032;-66
2021/12/02 06:20:09;;;;;;;10.18;3.42;;;;;;;8.83;80.47;99019.16;5090602;28;20032;-66
2021/12/02 06:22:35;;;;;;;9.00;3.85;;;;;;;8.81;81.21;99021.97;5092344;28;20032;-67
2021/12/02 06:27:56;;;;;;;7.55;3.92;;;;;;;8.86;81.65;99029.53;5092504;28;20070;-66
2021/12/02 06:30:24;;;;;;;7.18;3.33;;;;;;;8.85;81.39;99027.88;5092393;28;20062;-67
2021/12/02 06:32:50;;;;;;;8.57;3.67;;;;;;;8.85;82.00;99035.88;5073925;28;20040;-67
2021/12/02 06:35:15;;;;;;;6.05;3.85;;;;;;;8.81;82.65;99023.84;5092293;28;20027;-66
2021/12/02 06:37:41;;;;;;;6.75;3.85;;;;;;;8.84;83.16;99039.56;5091913;28;20028;-66
2021/12/02 06:40:08;;;;;;;6.10;3.50;;;;;;;8.83;83.04;99027.16;5073805;28;20032;-67
2021/12/02 06:42:34;;;;;;;5.75;3.97;;;;;;;8.82;83.65;99028.19;5073568;28;20032;-67
2021/12/02 06:45:00;;;;;;;8.77;4.45;;;;;;;8.80;84.52;99019.47;5073701;28;20342;-68
2021/12/02 06:47:40;;;;;;;4.57;3.40;;;;;;;8.81;84.43;99023.84;5092118;28;20028;-66
2021/12/02 06:50:16;;;;;;;6.63;3.65;;;;;;;8.84;85.27;99026.19;5092209;28;20023;-67
2021/12/02 06:52:42;;;;;;;6.57;3.30;;;;;;;8.85;85.71;99026.03;5092991;28;20028;-67
2021/12/02 06:55:08;;;;;;;7.88;3.85;;;;;;;8.85;86.56;99028.72;5092975;28;20035;-67
2021/12/02 06:57:33;;;;;;;7.30;4.10;;;;;;;8.83;87.37;99024.50;5092723;28;20064;-67
2021/12/02 07:00:03;;;;;;;6.00;3.47;;;;;;;8.89;87.98;99030.06;5074423;28;20036;-67
2021/12/02 07:02:30;;;;;;;6.78;3.25;;;;;;;8.90;89.01;99028.25;5074486;28;20030;-67
2021/12/02 07:04:57;;;;;;;6.43;3.53;;;;;;;8.89;89.85;99023.88;5092326;28;20024;-67
2021/12/02 07:07:23;;;;;;;7.07;4.07;;;;;;;8.89;90.13;99027.41;5092812;28;20043;-68
2021/12/02 07:09:49;;;;;;;8.35;4.22;;;;;;;8.90;90.58;99034.41;5092444;28;20062;-67
2021/12/02 07:12:14;;;;;;;5.25;3.40;;;;;;;8.93;91.32;99030.59;5090184;28;20100;-67
2021/12/02 07:14:45;;;;;;;6.30;4.20;;;;;;;8.88;91.55;99015.03;5067622;28;20668;-67
2021/12/02 07:17:11;;;;;;;9.10;4.18;;;;;;;8.92;91.92;99029.78;5068335;28;20127;-67
2021/12/02 07:19:39;;;;;;;5.60;3.70;;;;;;;8.84;92.05;99019.00;5089772;28;20028;-67
2021/12/02 07:22:05;;;;;;;8.95;4.10;;;;;;;8.89;92.10;99018.53;5092169;28;20031;-68
2021/12/02 07:24:30;;;;;;;9.00;4.07;;;;;;;8.94;92.67;99016.25;5074163;28;20020;-67
2021/12/02 07:26:58;;;;;;;8.90;4.88;;;;;;;8.92;92.83;99013.72;5092272;28;20380;-67
2021/12/02 07:29:23;;;;;;;7.03;3.75;;;;;;;8.95;93.25;99008.06;5092133;28;20052;-67
2021/12/02 07:31:50;;;;;;;7.95;4.30;;;;;;;8.97;94.30;99022.09;5091937;28;20035;-67
2021/12/02 07:34:17;;;;;;;7.82;4.60;;;;;;;8.96;94.84;99012.41;5091500;28;20095;-68
2021/12/02 07:36:44;;;;;;;9.88;4.30;;;;;;;8.99;95.31;99016.59;5091198;28;20442;-67
2021/12/02 07:39:10;;;;;;;8.32;4.78;;;;;;;8.96;96.00;99008.88;5073488;28;20039;-67
2021/12/02 07:41:39;;;;;;;7.60;4.65;;;;;;;9.00;96.74;99016.44;5091902;28;20024;-67
2021/12/02 07:44:05;;;;;;;5.97;3.72;;;;;;;9.00;96.69;99011.09;5089801;28;20108;-67
2021/12/02 07:46:31;;;;;;;10.15;4.32;;;;;;;9.02;97.35;99018.97;5089127;28;20042;-67
2021/12/02 07:48:58;;;;;;;8.35;4.60;;;;;;;9.02;97.57;99010.94;5091694;28;20368;-68
2021/12/02 07:51:30;;;;;;;7.72;4.53;;;;;;;8.97;98.48;99005.25;5091796;28;20099;-68
2021/12/02 07:53:58;;;;;;;8.35;4.78;;;;;;;8.98;99.22;99002.41;5091734;28;20027;-68
2021/12/02 07:56:24;;;;;;;11.10;5.00;;;;;;;8.98;99.44;98997.06;5073412;28;20032;-68
2021/12/02 07:58:50;;;;;;;7.40;4.85;;;;;;;9.04;99.90;99022.34;5091565;28;20035;-68
2021/12/02 08:01:17;;;;;;;8.55;4.97;;;;;;;9.03;100.00;99018.00;5091305;28;20028;-67
2021/12/02 08:03:44;;;;;;;9.32;5.55;;;;;;;9.02;100.00;99021.63;5073073;28;20020;-68
2021/12/02 08:06:14;;;;;;;14.20;6.13;;;;;;;9.04;100.00;99028.53;5091622;28;20098;-67
2021/12/02 08:08:41;;;;;;;8.40;5.32;;;;;;;9.03;100.00;99034.84;5091293;28;20392;-68
2021/12/02 08:11:08;;;;;;;12.10;6.10;;;;;;;9.04;100.00;99028.53;5073246;28;20023;-65
2021/12/02 08:13:34;;;;;;;9.65;5.28;;;;;;;9.00;100.00;99015.63;5091154;28;20024;-67
2021/12/02 08:16:01;;;;;;;12.77;6.03;;;;;;;9.00;100.00;99011.09;5091215;28;20039;-68
2021/12/02 08:18:27;;;;;;;13.43;6.85;;;;;;;9.04;100.00;99025.84;5072925;28;20047;-67
2021/12/02 08:20:54;;;;;;;10.27;5.90;;;;;;;9.00;100.00;99012.94;5091107;28;20033;-67
2021/12/02 08:23:19;;;;;;;12.68;6.55;;;;;;;9.06;100.00;99018.50;5091086;28;20028;-65
2021/12/02 08:25:45;;;;;;;10.50;5.75;;;;;;;9.06;100.00;99037.22;5090777;28;20095;-65
2021/12/02 08:28:10;;;;;;;8.60;5.25;;;;;;;9.03;100.00;99026.00;5090660;28;20146;-68
2021/12/02 08:30:37;;;;;;;10.88;5.22;;;;;;;9.04;100.00;99025.00;5090300;28;20032;-66
2021/12/02 08:33:04;;;;;;;10.07;5.15;;;;;;;9.01;100.00;99023.50;5090867;28;20043;-65
2021/12/02 08:35:30;;;;;;;8.07;4.65;;;;;;;9.03;100.00;99018.00;5090823;28;20399;-65
2021/12/02 08:38:01;;;;;;;8.30;4.70;;;;;;;9.09;100.00;99030.72;5090934;28;20028;-66
2021/12/02 08:40:35;;;;;;;8.95;4.95;;;;;;;9.08;100.00;99029.03;5072674;28;20119;-66
2021/12/02 08:43:03;;;;;;;7.57;4.82;;;;;;;9.05;100.00;99032.88;5090790;28;20570;-65
2021/12/02 08:45:29;;;;;;;8.48;4.75;;;;;;;9.08;100.00;99042.41;5090777;28;20097;-67
2021/12/02 08:47:56;;;;;;;9.38;4.75;;;;;;;9.07;100.00;99030.03;5088463;28;20032;-66
2021/12/02 08:50:22;;;;;;;10.40;5.43;;;;;;;9.06;100.00;99039.03;5090617;28;20107;-65
2021/12/02 08:52:49;;;;;;;9.75;4.95;;;;;;;9.04;100.00;99051.75;5090609;28;20024;-67
2021/12/02 08:55:17;;;;;;;7.60;4.88;;;;;;;9.04;100.00;99025.00;5090347;28;20026;-65
2021/12/02 08:57:43;;;;;;;9.20;5.95;;;;;;;9.04;100.00;99033.88;5090639;28;20400;-66
2021/12/02 09:00:12;;;;;;;9.20;5.30;;;;;;;9.05;100.00;99014.16;5090569;28;20154;-65
2021/12/02 09:02:37;;;;;;;8.73;5.15;;;;;;;9.03;100.00;99015.31;5090424;28;20024;-65
2021/12/02 09:05:04;;;;;;;8.35;4.80;;;;;;;9.07;100.00;99014.81;5090509;28;20028;-66
2021/12/02 09:07:30;;;;;;;9.45;5.47;;;;;;;9.04;100.00;99007.13;5090521;28;20365;-66
2021/12/02 09:09:58;;;;;;;8.65;5.80;;;;;;;9.04;100.00;99004.47;5086688;28;20028;-66
2021/12/02 09:12:24;;;;;;;7.78;4.82;;;;;;;9.06;100.00;99002.44;5086763;28;20507;-66
2021/12/02 09:14:50;;;;;;;12.73;5.43;;;;;;;9.11;100.00;99016.22;5090423;28;20404;-65
2021/12/02 09:17:16;;;;;;;8.00;5.03;;;;;;;9.10;100.00;99019.84;5090389;28;20043;-66
2021/12/02 09:19:42;;;;;;;10.82;5.18;;;;;;;9.12;100.00;99023.22;5090341;28;20040;-65
2021/12/02 09:22:07;;;;;;;8.98;5.35;;;;;;;9.10;100.00;98995.78;5090220;28;20121;-66
2021/12/02 09:24:33;;;;;;;13.25;6.63;;;;;;;9.12;100.00;98999.16;5090003;28;20107;-68
2021/12/02 09:26:58;;;;;;;8.88;5.75;;;;;;;9.19;100.00;99004.69;5072267;28;20035;-65
2021/12/02 09:29:24;;;;;;;9.15;5.22;;;;;;;9.21;100.00;98994.69;5090215;28;20044;-66
2021/12/02 09:31:51;;;;;;;11.40;5.82;;;;;;;9.17;100.00;98977.28;5072156;28;20047;-66
2021/12/02 09:34:17;;;;;;;12.65;6.20;;;;;;;9.20;100.00;98968.94;5090288;28;20361;-66
2021/12/02 09:36:46;;;;;;;10.60;5.75;;;;;;;9.26;100.00;98963.78;5071973;28;20468;-68
2021/12/02 09:39:13;;;;;;;9.85;6.93;;;;;;;9.24;100.00;98952.41;5090111;28;20081;-65
2021/12/02 09:41:38;;;;;;;11.80;6.97;;;;;;;9.36;100.00;98957.47;5090281;28;20020;-65
2021/12/02 09:44:04;;;;;;;13.68;7.75;;;;;;;9.32;100.00;98946.25;5093018;28;20369;-66
2021/12/02 09:46:30;;;;;;;13.55;8.82;;;;;;;9.40;100.00;98942.78;5094259;28;20142;-66
2021/12/02 09:48:58;;;;;;;12.10;8.35;;;;;;;9.44;100.00;98934.28;5094105;28;20046;-66
2021/12/02 09:51:27;;;;;;;16.33;8.63;;;;;;;9.48;100.00;98934.78;5075670;28;20020;-66
2021/12/02 09:53:56;;;;;;;15.15;8.55;;;;;;;9.50;100.00;98932.78;5093679;28;20020;-65
2021/12/02 09:56:29;;;;;;;13.55;7.65;;;;;;;9.55;100.00;98917.94;5093671;28;20028;-66
2021/12/02 09:58:57;;;;;;;15.82;8.25;;;;;;;9.62;100.00;98918.97;5093911;28;20103;-66
2021/12/02 10:01:36;;;;;;;17.17;10.18;;;;;;;9.67;100.00;98916.63;5075441;28;20040;-67
2021/12/02 10:04:03;;;;;;;17.25;9.43;;;;;;;9.69;100.00;98909.28;5093859;28;20043;-66
2021/12/02 10:06:32;;;;;;;17.27;10.07;;;;;;;9.79;100.00;98912.63;5093743;28;20383;-67
2021/12/02 10:09:50;;;;;;;14.20;8.82;;;;;;;9.86;100.00;98904.81;5093709;28;20039;-67
2021/12/02 10:12:18;;;;;;;12.20;7.78;;;;;;;9.91;100.00;98905.13;5092858;28;20034;-67
2021/12/02 10:14:57;;;;;;;10.25;7.60;;;;;;;9.95;100.00;98904.63;5093479;28;20043;-67
2021/12/02 10:17:35;;;;;;;13.98;8.50;;;;;;;10.00;100.00;98899.59;5093445;28;20096;-67
2021/12/02 10:23:16;;;;;;;11.55;7.90;;;;;;;10.09;100.00;98904.00;5093213;28;20472;-67
2021/12/02 10:26:09;;;;;;;12.40;8.73;;;;;;;10.19;100.00;98893.97;5075007;28;20027;-67
2021/12/02 10:28:41;;;;;;;16.00;9.52;;;;;;;10.25;100.00;98887.94;5086550;28;20549;-67
2021/12/02 10:31:07;;;;;;;16.08;9.75;;;;;;;10.26;100.00;98873.56;5072439;28;20024;-66
2021/12/02 10:33:36;;;;;;;18.15;9.57;;;;;;;10.41;100.00;98873.69;5093314;28;20055;-66
2021/12/02 10:36:05;;;;;;;13.73;8.50;;;;;;;10.47;100.00;98857.78;5075253;28;20119;-67
2021/12/02 10:38:40;;;;;;;13.00;8.32;;;;;;;10.50;99.78;98851.25;5093081;28;20543;-66
2021/12/02 10:41:17;;;;;;;9.80;7.40;;;;;;;10.58;99.28;98857.44;5092905;28;20028;-67
2021/12/02 10:44:03;;;;;;;9.45;7.22;;;;;;;10.67;98.86;98859.09;5074568;28;20476;-66
2021/12/02 10:46:29;;;;;;;11.23;7.85;;;;;;;10.74;98.51;98853.91;5092988;28;20024;-67
2021/12/02 10:48:54;;;;;;;10.60;7.13;;;;;;;10.78;98.37;98861.44;5092779;28;20044;-67
2021/12/02 10:51:50;;;;;;;8.82;5.65;;;;;;;10.87;97.40;98852.34;5089589;28;20039;-67
2021/12/02 10:54:25;;;;;;;6.78;4.40;;;;;;;10.94;95.92;98857.84;5087703;28;20036;-67
2021/12/02 10:56:56;;;;;;;5.22;3.58;;;;;;;10.92;94.67;98839.25;5074242;28;20023;-67
2021/12/02 10:59:35;;;;;;;4.75;3.10;;;;;;;11.00;92.09;98843.75;5092552;28;20472;-67
2021/12/02 11:02:30;;;;;;;3.80;2.90;;;;;;;11.03;88.73;98854.16;5092805;28;20024;-67
2021/12/02 11:05:02;;;;;;;4.57;3.22;;;;;;;11.00;89.18;98841.91;5074267;28;20046;-67
2021/12/02 11:07:31;;;;;;;4.40;3.08;;;;;;;11.02;89.92;98847.09;5074070;28;20052;-67
2021/12/02 11:09:59;;;;;;;4.95;2.97;;;;;;;10.98;90.11;98841.25;5092187;28;20491;-66
2021/12/02 11:12:30;;;;;;;4.80;3.10;;;;;;;10.98;90.82;98851.97;5092292;28;20020;-66
2021/12/02 11:14:58;;;;;;;6.00;3.88;;;;;;;10.97;91.40;98842.25;5092266;28;20488;-66
2021/12/02 11:17:29;;;;;;;4.28;3.33;;;;;;;10.98;91.04;98838.56;5092401;28;20032;-66
2021/12/02 11:19:56;;;;;;;4.70;3.45;;;;;;;10.97;90.90;98842.25;5092279;28;20038;-66
2021/12/02 11:22:23;;;;;;;7.28;3.30;;;;;;;10.96;90.66;98839.72;5092169;28;20122;-66
2021/12/02 11:24:50;;;;;;;4.72;3.38;;;;;;;10.92;90.62;98839.25;5092088;28;20080;-66
2021/12/02 11:27:34;;;;;;;5.25;3.60;;;;;;;10.91;90.56;98834.06;5092264;28;20035;-66
2021/12/02 11:30:19;;;;;;;;;;;;;;;10.95;90.42;98833.53;5092755;28;20038;-66
2021/12/02 11:32:44;;;;;;;5.45;4.05;;;;;;;10.99;90.87;98828.66;5091972;28;20318;-66
2021/12/02 11:35:27;;;;;;;8.52;3.88;;;;;;;10.99;90.59;98829.50;5092143;28;20019;-66
2021/12/02 11:38:03;;;;;;;7.18;3.90;;;;;;;11.02;90.41;98828.31;5074305;28;20024;-70
2021/12/02 11:40:32;;;;;;;7.80;4.53;;;;;;;10.99;90.76;98816.09;5071889;28;20112;-70
2021/12/02 11:42:59;;;;;;;8.15;4.40;;;;;;;10.98;90.13;98810.91;5090288;28;20035;-69
2021/12/02 11:45:28;;;;;;;8.20;4.70;;;;;;;11.02;90.38;98815.75;5074162;28;20027;-69
2021/12/02 11:47:54;;;;;;;8.32;4.40;;;;;;;11.03;90.91;98824.63;5092220;28;20082;-71
2021/12/02 11:50:22;;;;;;;7.80;4.63;;;;;;;11.03;90.50;98803.19;5092133;28;20032;-70
2021/12/02 11:52:48;;;;;;;8.48;4.55;;;;;;;10.98;90.43;98790.28;5092167;28;20121;-70
2021/12/02 11:55:43;;;;;;;10.27;5.45;;;;;;;11.02;89.79;98802.34;5091688;28;20024;-72
2021/12/02 11:58:09;;;;;;;;;;;;;;;11.00;89.68;98798.97;5068581;28;20044;-72
2021/12/02 12:00:36;;;;;;;9.18;4.57;;;;;;;11.01;90.35;98797.13;5092143;28;19919;-71
2021/12/02 12:03:07;;;;;;;7.25;4.65;;;;;;;10.99;90.93;98791.94;5091808;28;20490;-71